Time,TemperatureF,DewpointF,PressureIn,WindDirection,WindDirectionDegrees,WindSpeedMPH,WindSpeedGustMPH,Humidity,HourlyPrecipIn,Conditions,Clouds,dailyrainin,SoftwareType,DateUTC
2013-07-11 00:01:00,62.0,49.0,-100.00,SE,126,9.0,14.0,64,0.00,,,-99.99,,2013-07-11 06:01:00,
2013-07-11 00:43:00,60.0,50.0,-100.00,SE,138,12.0,15.0,68,0.00,,,-99.99,,2013-07-11 06:43:00,
2013-07-11 01:12:00,60.0,50.0,-100.00,SE,131,12.0,16.0,69,0.00,,,-99.99,,2013-07-11 07:12:00,
2013-07-11 01:32:00,62.0,50.0,-100.00,SE,145,14.0,17.0,66,0.00,,,-99.99,,2013-07-11 07:32:00,
2013-07-11 01:45:00,62.0,50.0,-100.00,SSE,148,15.0,17.0,65,0.00,,,-99.99,,2013-07-11 07:45:00,
2013-07-11 02:02:00,60.0,50.0,-100.00,SE,133,11.0,14.0,69,0.00,,,-99.99,,2013-07-11 08:02:00,
2013-07-11 02:11:00,60.0,50.0,-100.00,ESE,123,9.0,12.0,70,0.00,,,-99.99,,2013-07-11 08:11:00,
2013-07-11 02:43:00,59.0,50.0,-100.00,SE,131,11.0,14.0,71,0.00,,,-99.99,,2013-07-11 08:43:00,
2013-07-11 03:43:00,61.0,45.0,-100.00,SE,134,11.0,13.0,55,0.00,,,-99.99,,2013-07-11 09:43:00,
2013-07-11 04:12:00,62.0,43.0,-100.00,SE,134,10.0,13.0,50,0.00,,,-99.99,,2013-07-11 10:12:00,
2013-07-11 04:42:00,64.0,42.0,-100.00,SE,130,8.0,11.0,45,0.00,,,-99.99,,2013-07-11 10:42:00,
2013-07-11 05:02:00,60.0,42.0,-100.00,ESE,109,7.0,9.0,50,0.00,,,-99.99,,2013-07-11 11:02:00,
2013-07-11 05:12:00,62.0,41.0,-100.00,SE,130,7.0,9.0,45,0.00,,,-99.99,,2013-07-11 11:12:00,
2013-07-11 05:43:00,64.0,39.0,-100.00,SE,140,10.0,12.0,41,0.00,,,-99.99,,2013-07-11 11:43:00,
2013-07-11 06:01:00,66.0,40.0,-100.00,SE,140,12.0,16.0,39,0.00,,,-99.99,,2013-07-11 12:01:00,
2013-07-11 06:43:00,67.0,37.0,-100.00,SSE,147,12.0,13.0,33,0.00,,,-99.99,,2013-07-11 12:43:00,
2013-07-11 08:04:00,70.0,40.0,-100.00,ESE,113,9.0,15.0,33,0.00,,,-99.99,,2013-07-11 14:04:00,
2013-07-11 08:45:00,75.0,38.0,-100.00,ESE,112,9.0,13.0,27,0.00,,,-99.99,,2013-07-11 14:45:00,
2013-07-11 09:12:00,75.0,41.0,-100.00,East,82,9.0,13.0,30,0.00,,,-99.99,,2013-07-11 15:12:00,
2013-07-11 09:35:00,77.0,39.0,-100.00,ESE,117,11.0,17.0,25,0.00,,,-99.99,,2013-07-11 15:35:00,
2013-07-11 11:02:00,84.0,30.0,-100.00,SE,133,16.0,22.0,14,0.00,,,-99.99,,2013-07-11 17:02:00,
2013-07-11 11:13:00,84.0,31.0,-100.00,SE,136,17.0,24.0,15,0.00,,,-99.99,,2013-07-11 17:13:00,
2013-07-11 11:45:00,84.0,28.0,-100.00,SSE,147,19.0,24.0,13,0.00,,,-99.99,,2013-07-11 17:45:00,
2013-07-11 12:14:00,86.0,26.0,-100.00,SSE,154,10.0,15.0,12,0.00,,,-99.99,,2013-07-11 18:14:00,
2013-07-11 12:45:00,86.0,27.0,-100.00,SSW,203,6.0,14.0,12,0.00,,,-99.99,,2013-07-11 18:45:00,
2013-07-11 13:44:00,85.0,27.0,-100.00,WNW,288,8.0,13.0,12,0.00,,,-99.99,,2013-07-11 19:44:00,
2013-07-11 14:46:00,88.0,28.0,-100.00,South,178,6.0,11.0,12,0.00,,,-99.99,,2013-07-11 20:46:00,
2013-07-11 15:44:00,86.0,29.0,-100.00,SSW,209,2.0,7.0,13,0.00,,,-99.99,,2013-07-11 21:44:00,
2013-07-11 16:45:00,90.0,28.0,-100.00,SSE,164,2.0,7.0,11,0.00,,,-99.99,,2013-07-11 22:45:00,
2013-07-11 17:04:00,88.0,27.0,-100.00,WSW,246,5.0,11.0,11,0.00,,,-99.99,,2013-07-11 23:04:00,
2013-07-11 17:46:00,86.0,37.0,-100.00,East,97,15.0,24.0,18,0.00,,,-99.99,,2013-07-11 23:46:00,
2013-07-11 18:03:00,84.0,38.0,-100.00,East,99,16.0,22.0,19,0.00,,,-99.99,,2013-07-12 00:03:00,
2013-07-11 18:13:00,85.0,39.0,-100.00,ESE,102,16.0,21.0,20,0.00,,,-99.99,,2013-07-12 00:13:00,
2013-07-11 19:12:00,83.0,42.0,-100.00,ESE,104,14.0,20.0,24,0.00,,,-99.99,,2013-07-12 01:12:00,
2013-07-11 19:44:00,81.0,44.0,-100.00,ESE,106,12.0,18.0,27,0.00,,,-99.99,,2013-07-12 01:44:00,
2013-07-11 20:43:00,78.0,42.0,-100.00,South,174,6.0,11.0,28,0.00,,,-99.99,,2013-07-12 02:43:00,
2013-07-11 21:35:00,78.0,40.0,-100.00,NNE,18,4.0,7.0,26,0.00,,,-99.99,,2013-07-12 03:35:00,
2013-07-11 21:43:00,77.0,40.0,-100.00,NE,41,1.0,5.0,26,0.00,,,-99.99,,2013-07-12 03:43:00,
2013-07-11 22:43:00,74.0,36.0,-100.00,SSW,213,2.0,5.0,24,0.00,,,-99.99,,2013-07-12 04:43:00,
2013-07-11 22:53:00,74.0,35.0,-100.00,SSW,192,2.0,6.0,24,0.00,,,-99.99,,2013-07-12 04:53:00,
2013-07-11 23:02:00,76.0,35.0,-100.00,SSW,192,3.0,6.0,23,0.00,,,-99.99,,2013-07-12 05:02:00,
2013-07-11 23:43:00,75.0,38.0,-100.00,SSE,150,17.0,24.0,26,0.00,,,-99.99,,2013-07-12 05:43:00,